Impacts TAF Board INFO
FOR SITUATIONAL AWARENESS. NOT TO BE USED FOR FLIGHT PLANNING PURPOSES.
IDs:

KNEW - New Orleans/Lakefron, LA, US

Issued at 0524 UTC 24 Nov 2017
Updated at 0727 UTC 24 Nov 2017
Potential Impact None Slight Moderate High
Time0653Z 24/08Z 24/09Z 24/10Z 24/11Z 24/12Z 24/13Z 24/14Z 24/15Z 24/16Z 24/17Z 24/18Z 24/19Z 24/20Z>>
Type OBS PRVL PRVL PRVL PRVL PRVL PRVL PRVL PRVL PRVL PRVL PRVL PRVL PRVL
VIS 10 >6 >6 >6 >6 >6 >6 >6 >6 >6 >6 >6 >6 >6
CIG -- -- -- -- -- -- -- -- -- -- -- -- -- --
Cover CLR SKC SKC SKC SKC SKC SKC SKC SKC SKC SKC SKC SKC SKC
FltCat VFR VFR VFR VFR VFR VFR VFR VFR VFR VFR VFR VFR VFR VFR
WX -- -- -- -- -- -- -- -- -- -- -- -- -- --
WDir 10 20 20 20 20 20 20 20 20 30 30 30 30 30
WSpd 13 12 12 12 12 12 12 12 12 5 5 5 5 5
WGst -- -- -- -- -- -- -- -- -- -- -- -- -- --

Raw TAF
KNEW 240524Z 2406/2506 02012KT P6SM SKC
  FM241600 03005KT P6SM SKC
  FM250500 21004KT P6SM FEW150 FEW250


Raw METAR
KNEW 240653Z AUTO 01013KT 10SM CLR 12/03 A3003 RMK AO2 SLP163 T01170028
KNEW 240553Z AUTO 03012KT 10SM CLR 13/03 A3005 RMK AO2 SLP169 T01280033 10150 20128 401780078 58003
KNEW 240453Z AUTO 01015KT 10SM CLR 13/02 A3006 RMK AO2 SLP173 T01330017

METAR Board

FOR SITUATIONAL AWARENESS. NOT TO BE USED FOR FLIGHT PLANNING PURPOSES.